sensor_id;sensor_type;location;lat;lon;timestamp;P1;durP1;ratioP1;P2;durP2;ratioP2
8871;SDS011;4472;52.092;9.820;2023-08-24T00:01:05;8.37;;;3.83;;
8871;SDS011;4472;52.092;9.820;2023-08-24T00:03:53;5.07;;;3.73;;
8871;SDS011;4472;52.092;9.820;2023-08-24T00:06:40;9.60;;;3.43;;
8871;SDS011;4472;52.092;9.820;2023-08-24T00:09:27;6.00;;;3.33;;
8871;SDS011;4472;52.092;9.820;2023-08-24T00:12:14;3.43;;;3.13;;
8871;SDS011;4472;52.092;9.820;2023-08-24T00:15:02;4.60;;;3.83;;
8871;SDS011;4472;52.092;9.820;2023-08-24T00:17:49;3.97;;;3.50;;
8871;SDS011;4472;52.092;9.820;2023-08-24T00:20:38;4.03;;;3.40;;
8871;SDS011;4472;52.092;9.820;2023-08-24T00:23:25;4.13;;;3.73;;
8871;SDS011;4472;52.092;9.820;2023-08-24T00:26:12;4.17;;;3.80;;
8871;SDS011;4472;52.092;9.820;2023-08-24T00:29:02;3.80;;;3.50;;
8871;SDS011;4472;52.092;9.820;2023-08-24T00:31:49;4.87;;;3.67;;
8871;SDS011;4472;52.092;9.820;2023-08-24T00:34:36;4.10;;;3.70;;
8871;SDS011;4472;52.092;9.820;2023-08-24T00:37:25;4.90;;;4.40;;
8871;SDS011;4472;52.092;9.820;2023-08-24T00:40:13;4.70;;;4.30;;
8871;SDS011;4472;52.092;9.820;2023-08-24T00:43:00;4.23;;;3.80;;
8871;SDS011;4472;52.092;9.820;2023-08-24T00:45:47;7.93;;;3.60;;
8871;SDS011;4472;52.092;9.820;2023-08-24T00:48:35;4.20;;;3.83;;
8871;SDS011;4472;52.092;9.820;2023-08-24T00:51:22;5.30;;;4.20;;
8871;SDS011;4472;52.092;9.820;2023-08-24T00:54:11;4.47;;;4.07;;
8871;SDS011;4472;52.092;9.820;2023-08-24T00:56:58;4.87;;;4.47;;
8871;SDS011;4472;52.092;9.820;2023-08-24T00:59:46;4.33;;;3.60;;
8871;SDS011;4472;52.092;9.820;2023-08-24T01:02:33;6.77;;;4.27;;
8871;SDS011;4472;52.092;9.820;2023-08-24T01:05:21;4.70;;;4.20;;
8871;SDS011;4472;52.092;9.820;2023-08-24T01:08:08;4.53;;;3.87;;
8871;SDS011;4472;52.092;9.820;2023-08-24T01:10:59;4.47;;;4.00;;
8871;SDS011;4472;52.092;9.820;2023-08-24T01:13:50;4.73;;;4.17;;
8871;SDS011;4472;52.092;9.820;2023-08-24T01:16:42;6.20;;;4.43;;
8871;SDS011;4472;52.092;9.820;2023-08-24T01:19:34;5.10;;;4.60;;
8871;SDS011;4472;52.092;9.820;2023-08-24T01:22:31;5.70;;;5.10;;
8871;SDS011;4472;52.092;9.820;2023-08-24T01:25:24;9.27;;;5.47;;
8871;SDS011;4472;52.092;9.820;2023-08-24T01:28:19;8.90;;;5.70;;
8871;SDS011;4472;52.092;9.820;2023-08-24T01:31:07;6.63;;;5.53;;
8871;SDS011;4472;52.092;9.820;2023-08-24T01:33:55;7.03;;;6.33;;
8871;SDS011;4472;52.092;9.820;2023-08-24T01:36:43;7.57;;;6.43;;
8871;SDS011;4472;52.092;9.820;2023-08-24T01:39:34;6.20;;;5.70;;
8871;SDS011;4472;52.092;9.820;2023-08-24T01:42:28;6.23;;;5.63;;
8871;SDS011;4472;52.092;9.820;2023-08-24T01:45:22;6.13;;;5.60;;
8871;SDS011;4472;52.092;9.820;2023-08-24T01:48:13;7.93;;;5.60;;
8871;SDS011;4472;52.092;9.820;2023-08-24T01:51:01;6.67;;;6.07;;
8871;SDS011;4472;52.092;9.820;2023-08-24T01:53:49;9.10;;;7.57;;
8871;SDS011;4472;52.092;9.820;2023-08-24T01:56:38;6.80;;;6.10;;
8871;SDS011;4472;52.092;9.820;2023-08-24T01:59:25;7.00;;;6.40;;
8871;SDS011;4472;52.092;9.820;2023-08-24T02:02:13;7.57;;;6.93;;
8871;SDS011;4472;52.092;9.820;2023-08-24T02:05:01;10.33;;;6.20;;
8871;SDS011;4472;52.092;9.820;2023-08-24T02:07:48;8.00;;;6.60;;
8871;SDS011;4472;52.092;9.820;2023-08-24T02:10:35;8.07;;;7.33;;
8871;SDS011;4472;52.092;9.820;2023-08-24T02:13:22;9.73;;;7.53;;
8871;SDS011;4472;52.092;9.820;2023-08-24T02:16:09;8.17;;;7.30;;
8871;SDS011;4472;52.092;9.820;2023-08-24T02:18:59;8.20;;;7.37;;
8871;SDS011;4472;52.092;9.820;2023-08-24T02:21:46;9.20;;;8.03;;
8871;SDS011;4472;52.092;9.820;2023-08-24T02:24:33;8.53;;;7.73;;
8871;SDS011;4472;52.092;9.820;2023-08-24T02:27:20;8.70;;;7.57;;
8871;SDS011;4472;52.092;9.820;2023-08-24T02:30:08;6.83;;;6.13;;
8871;SDS011;4472;52.092;9.820;2023-08-24T02:32:55;9.17;;;7.97;;
8871;SDS011;4472;52.092;9.820;2023-08-24T02:35:44;8.00;;;7.40;;
8871;SDS011;4472;52.092;9.820;2023-08-24T02:38:33;8.50;;;7.57;;
8871;SDS011;4472;52.092;9.820;2023-08-24T02:41:21;9.83;;;8.33;;
8871;SDS011;4472;52.092;9.820;2023-08-24T02:44:08;8.90;;;8.10;;
8871;SDS011;4472;52.092;9.820;2023-08-24T02:46:55;11.17;;;8.67;;
8871;SDS011;4472;52.092;9.820;2023-08-24T02:49:42;9.67;;;8.57;;
8871;SDS011;4472;52.092;9.820;2023-08-24T02:52:31;9.73;;;8.80;;
8871;SDS011;4472;52.092;9.820;2023-08-24T02:55:18;8.67;;;7.90;;
8871;SDS011;4472;52.092;9.820;2023-08-24T02:58:05;9.93;;;9.00;;
8871;SDS011;4472;52.092;9.820;2023-08-24T03:00:53;9.80;;;8.90;;
8871;SDS011;4472;52.092;9.820;2023-08-24T03:03:40;9.80;;;8.83;;
8871;SDS011;4472;52.092;9.820;2023-08-24T03:06:27;9.60;;;8.70;;
8871;SDS011;4472;52.092;9.820;2023-08-24T03:09:16;10.67;;;9.63;;
8871;SDS011;4472;52.092;9.820;2023-08-24T03:12:03;15.07;;;10.20;;
8871;SDS011;4472;52.092;9.820;2023-08-24T03:14:51;10.70;;;9.63;;
8871;SDS011;4472;52.092;9.820;2023-08-24T03:17:38;13.37;;;9.83;;
8871;SDS011;4472;52.092;9.820;2023-08-24T03:20:25;10.87;;;9.87;;
8871;SDS011;4472;52.092;9.820;2023-08-24T03:23:13;11.77;;;10.67;;
8871;SDS011;4472;52.092;9.820;2023-08-24T03:26:01;11.47;;;10.40;;
8871;SDS011;4472;52.092;9.820;2023-08-24T03:28:48;11.17;;;10.27;;
8871;SDS011;4472;52.092;9.820;2023-08-24T03:31:36;11.10;;;9.97;;
8871;SDS011;4472;52.092;9.820;2023-08-24T03:34:23;10.87;;;9.73;;
8871;SDS011;4472;52.092;9.820;2023-08-24T03:37:10;13.83;;;10.87;;
8871;SDS011;4472;52.092;9.820;2023-08-24T03:39:58;12.20;;;10.93;;
8871;SDS011;4472;52.092;9.820;2023-08-24T03:42:47;12.10;;;10.90;;
8871;SDS011;4472;52.092;9.820;2023-08-24T03:45:34;13.37;;;11.60;;
8871;SDS011;4472;52.092;9.820;2023-08-24T03:48:21;13.53;;;12.13;;
8871;SDS011;4472;52.092;9.820;2023-08-24T03:51:08;13.30;;;11.93;;
8871;SDS011;4472;52.092;9.820;2023-08-24T03:53:55;13.10;;;11.77;;
8871;SDS011;4472;52.092;9.820;2023-08-24T03:56:42;12.23;;;11.00;;
8871;SDS011;4472;52.092;9.820;2023-08-24T03:59:31;13.17;;;11.83;;
8871;SDS011;4472;52.092;9.820;2023-08-24T04:02:18;13.10;;;10.20;;
8871;SDS011;4472;52.092;9.820;2023-08-24T04:05:06;10.90;;;9.93;;
8871;SDS011;4472;52.092;9.820;2023-08-24T04:07:53;11.30;;;10.23;;
8871;SDS011;4472;52.092;9.820;2023-08-24T04:10:40;11.30;;;10.27;;
8871;SDS011;4472;52.092;9.820;2023-08-24T04:13:27;12.37;;;11.17;;
8871;SDS011;4472;52.092;9.820;2023-08-24T04:16:16;12.77;;;11.67;;
8871;SDS011;4472;52.092;9.820;2023-08-24T04:19:03;14.03;;;12.77;;
8871;SDS011;4472;52.092;9.820;2023-08-24T04:21:50;13.60;;;12.30;;
8871;SDS011;4472;52.092;9.820;2023-08-24T04:24:37;13.73;;;12.43;;
8871;SDS011;4472;52.092;9.820;2023-08-24T04:27:24;16.10;;;14.47;;
8871;SDS011;4472;52.092;9.820;2023-08-24T04:30:12;16.17;;;14.57;;
8871;SDS011;4472;52.092;9.820;2023-08-24T04:33:01;14.47;;;13.27;;
8871;SDS011;4472;52.092;9.820;2023-08-24T04:35:49;15.50;;;13.97;;
8871;SDS011;4472;52.092;9.820;2023-08-24T04:38:36;16.80;;;15.17;;
8871;SDS011;4472;52.092;9.820;2023-08-24T04:41:23;16.10;;;14.60;;
8871;SDS011;4472;52.092;9.820;2023-08-24T04:44:11;15.57;;;14.07;;
8871;SDS011;4472;52.092;9.820;2023-08-24T04:46:58;15.23;;;13.63;;
8871;SDS011;4472;52.092;9.820;2023-08-24T04:49:49;13.73;;;12.27;;
8871;SDS011;4472;52.092;9.820;2023-08-24T04:52:37;13.40;;;12.10;;
8871;SDS011;4472;52.092;9.820;2023-08-24T04:55:24;14.23;;;13.10;;
8871;SDS011;4472;52.092;9.820;2023-08-24T04:58:11;12.63;;;11.33;;
8871;SDS011;4472;52.092;9.820;2023-08-24T05:00:59;11.60;;;10.60;;
8871;SDS011;4472;52.092;9.820;2023-08-24T05:03:46;11.43;;;10.37;;
8871;SDS011;4472;52.092;9.820;2023-08-24T05:06:35;12.50;;;9.80;;
8871;SDS011;4472;52.092;9.820;2023-08-24T05:09:22;9.57;;;8.87;;
8871;SDS011;4472;52.092;9.820;2023-08-24T05:12:09;9.80;;;9.10;;
8871;SDS011;4472;52.092;9.820;2023-08-24T05:14:56;10.67;;;9.70;;
8871;SDS011;4472;52.092;9.820;2023-08-24T05:17:43;11.53;;;10.27;;
8871;SDS011;4472;52.092;9.820;2023-08-24T05:20:30;11.27;;;10.13;;
8871;SDS011;4472;52.092;9.820;2023-08-24T05:23:19;11.77;;;10.50;;
8871;SDS011;4472;52.092;9.820;2023-08-24T05:26:06;13.23;;;8.97;;
8871;SDS011;4472;52.092;9.820;2023-08-24T05:28:53;13.60;;;10.53;;
8871;SDS011;4472;52.092;9.820;2023-08-24T05:31:40;11.87;;;10.70;;
8871;SDS011;4472;52.092;9.820;2023-08-24T05:34:27;13.50;;;11.40;;
8871;SDS011;4472;52.092;9.820;2023-08-24T05:37:14;12.43;;;11.20;;
8871;SDS011;4472;52.092;9.820;2023-08-24T05:40:03;14.07;;;12.63;;
8871;SDS011;4472;52.092;9.820;2023-08-24T05:42:51;14.30;;;12.47;;
8871;SDS011;4472;52.092;9.820;2023-08-24T05:45:39;13.70;;;12.50;;
8871;SDS011;4472;52.092;9.820;2023-08-24T05:48:29;14.33;;;12.57;;
8871;SDS011;4472;52.092;9.820;2023-08-24T05:51:16;12.70;;;11.57;;
8871;SDS011;4472;52.092;9.820;2023-08-24T05:54:03;16.43;;;12.43;;
8871;SDS011;4472;52.092;9.820;2023-08-24T05:56:52;13.60;;;12.37;;
8871;SDS011;4472;52.092;9.820;2023-08-24T05:59:39;13.03;;;11.73;;
8871;SDS011;4472;52.092;9.820;2023-08-24T06:02:26;14.73;;;13.33;;
8871;SDS011;4472;52.092;9.820;2023-08-24T06:05:13;14.87;;;13.47;;
8871;SDS011;4472;52.092;9.820;2023-08-24T06:08:03;16.43;;;13.70;;
8871;SDS011;4472;52.092;9.820;2023-08-24T06:10:50;14.27;;;12.80;;
8871;SDS011;4472;52.092;9.820;2023-08-24T06:13:39;15.07;;;13.50;;
8871;SDS011;4472;52.092;9.820;2023-08-24T06:16:26;13.60;;;11.57;;
8871;SDS011;4472;52.092;9.820;2023-08-24T06:19:13;15.13;;;13.57;;
8871;SDS011;4472;52.092;9.820;2023-08-24T06:22:01;14.87;;;12.10;;
8871;SDS011;4472;52.092;9.820;2023-08-24T06:24:48;14.13;;;12.73;;
8871;SDS011;4472;52.092;9.820;2023-08-24T06:27:35;16.13;;;14.53;;
8871;SDS011;4472;52.092;9.820;2023-08-24T06:30:24;14.33;;;13.03;;
8871;SDS011;4472;52.092;9.820;2023-08-24T06:33:11;16.77;;;15.03;;
8871;SDS011;4472;52.092;9.820;2023-08-24T06:35:58;16.50;;;15.00;;
8871;SDS011;4472;52.092;9.820;2023-08-24T06:38:46;15.87;;;14.40;;
8871;SDS011;4472;52.092;9.820;2023-08-24T06:41:33;18.70;;;15.10;;
8871;SDS011;4472;52.092;9.820;2023-08-24T06:44:20;16.23;;;14.63;;
8871;SDS011;4472;52.092;9.820;2023-08-24T06:47:09;17.67;;;15.10;;
8871;SDS011;4472;52.092;9.820;2023-08-24T06:49:56;16.70;;;15.00;;
8871;SDS011;4472;52.092;9.820;2023-08-24T06:52:43;17.13;;;15.43;;
8871;SDS011;4472;52.092;9.820;2023-08-24T06:55:30;17.20;;;15.60;;
8871;SDS011;4472;52.092;9.820;2023-08-24T06:58:18;17.17;;;15.50;;
8871;SDS011;4472;52.092;9.820;2023-08-24T07:01:05;17.97;;;16.23;;
8871;SDS011;4472;52.092;9.820;2023-08-24T07:03:54;16.57;;;15.17;;
8871;SDS011;4472;52.092;9.820;2023-08-24T07:06:41;16.43;;;14.90;;
8871;SDS011;4472;52.092;9.820;2023-08-24T07:09:29;16.97;;;15.33;;
8871;SDS011;4472;52.092;9.820;2023-08-24T07:12:16;19.43;;;14.93;;
8871;SDS011;4472;52.092;9.820;2023-08-24T07:15:04;17.30;;;15.47;;
8871;SDS011;4472;52.092;9.820;2023-08-24T07:17:51;17.03;;;15.30;;
8871;SDS011;4472;52.092;9.820;2023-08-24T07:20:40;17.07;;;14.90;;
8871;SDS011;4472;52.092;9.820;2023-08-24T07:23:27;16.77;;;15.27;;
8871;SDS011;4472;52.092;9.820;2023-08-24T07:26:14;16.10;;;14.50;;
8871;SDS011;4472;52.092;9.820;2023-08-24T07:29:01;15.30;;;13.90;;
8871;SDS011;4472;52.092;9.820;2023-08-24T07:31:49;14.83;;;13.30;;
8871;SDS011;4472;52.092;9.820;2023-08-24T07:34:36;15.27;;;13.63;;
8871;SDS011;4472;52.092;9.820;2023-08-24T07:37:24;13.43;;;12.17;;
8871;SDS011;4472;52.092;9.820;2023-08-24T07:40:12;14.00;;;12.60;;
8871;SDS011;4472;52.092;9.820;2023-08-24T07:42:59;14.43;;;12.17;;
8871;SDS011;4472;52.092;9.820;2023-08-24T07:45:46;12.67;;;11.37;;
8871;SDS011;4472;52.092;9.820;2023-08-24T07:48:33;12.87;;;11.53;;
8871;SDS011;4472;52.092;9.820;2023-08-24T07:51:20;15.17;;;11.93;;
8871;SDS011;4472;52.092;9.820;2023-08-24T07:54:09;13.53;;;12.03;;
8871;SDS011;4472;52.092;9.820;2023-08-24T07:56:56;12.17;;;10.93;;
8871;SDS011;4472;52.092;9.820;2023-08-24T07:59:43;11.63;;;10.63;;
8871;SDS011;4472;52.092;9.820;2023-08-24T08:02:30;10.10;;;9.03;;
8871;SDS011;4472;52.092;9.820;2023-08-24T08:05:17;9.03;;;8.07;;
8871;SDS011;4472;52.092;9.820;2023-08-24T08:08:05;8.20;;;7.10;;
8871;SDS011;4472;52.092;9.820;2023-08-24T08:10:58;9.63;;;8.10;;
8871;SDS011;4472;52.092;9.820;2023-08-24T08:13:46;9.93;;;7.40;;
8871;SDS011;4472;52.092;9.820;2023-08-24T08:16:34;8.77;;;7.93;;
8871;SDS011;4472;52.092;9.820;2023-08-24T08:19:21;8.73;;;7.07;;
8871;SDS011;4472;52.092;9.820;2023-08-24T08:22:12;8.23;;;7.53;;
8871;SDS011;4472;52.092;9.820;2023-08-24T08:24:59;8.20;;;6.83;;
8871;SDS011;4472;52.092;9.820;2023-08-24T08:27:48;7.10;;;6.50;;
8871;SDS011;4472;52.092;9.820;2023-08-24T08:30:35;7.37;;;6.30;;
8871;SDS011;4472;52.092;9.820;2023-08-24T08:33:23;10.27;;;6.23;;
8871;SDS011;4472;52.092;9.820;2023-08-24T08:36:10;6.77;;;5.90;;
8871;SDS011;4472;52.092;9.820;2023-08-24T08:38:57;9.13;;;5.97;;
8871;SDS011;4472;52.092;9.820;2023-08-24T08:41:44;8.40;;;6.60;;
8871;SDS011;4472;52.092;9.820;2023-08-24T08:44:34;8.23;;;5.80;;
8871;SDS011;4472;52.092;9.820;2023-08-24T08:47:21;7.67;;;6.30;;
8871;SDS011;4472;52.092;9.820;2023-08-24T08:50:09;6.27;;;5.70;;
8871;SDS011;4472;52.092;9.820;2023-08-24T08:52:56;6.20;;;5.50;;
8871;SDS011;4472;52.092;9.820;2023-08-24T08:55:44;6.83;;;5.17;;
8871;SDS011;4472;52.092;9.820;2023-08-24T08:58:31;6.20;;;4.67;;
8871;SDS011;4472;52.092;9.820;2023-08-24T09:01:22;7.67;;;5.43;;
8871;SDS011;4472;52.092;9.820;2023-08-24T09:04:11;6.70;;;5.83;;
8871;SDS011;4472;52.092;9.820;2023-08-24T09:06:58;6.23;;;5.27;;
8871;SDS011;4472;52.092;9.820;2023-08-24T09:09:55;5.93;;;5.37;;
8871;SDS011;4472;52.092;9.820;2023-08-24T09:12:42;6.17;;;5.53;;
8871;SDS011;4472;52.092;9.820;2023-08-24T09:15:32;6.20;;;5.60;;
8871;SDS011;4472;52.092;9.820;2023-08-24T09:18:35;8.70;;;5.23;;
8871;SDS011;4472;52.092;9.820;2023-08-24T09:21:23;8.20;;;4.80;;
8871;SDS011;4472;52.092;9.820;2023-08-24T09:24:11;10.23;;;4.77;;
8871;SDS011;4472;52.092;9.820;2023-08-24T09:26:59;10.13;;;5.03;;
8871;SDS011;4472;52.092;9.820;2023-08-24T09:29:47;8.50;;;5.00;;
8871;SDS011;4472;52.092;9.820;2023-08-24T09:32:35;6.20;;;5.13;;
8871;SDS011;4472;52.092;9.820;2023-08-24T09:35:24;4.13;;;3.73;;
8871;SDS011;4472;52.092;9.820;2023-08-24T09:38:16;7.97;;;5.20;;
8871;SDS011;4472;52.092;9.820;2023-08-24T09:41:04;9.03;;;5.67;;
8871;SDS011;4472;52.092;9.820;2023-08-24T09:43:51;6.70;;;5.10;;
8871;SDS011;4472;52.092;9.820;2023-08-24T09:46:38;6.90;;;4.93;;
8871;SDS011;4472;52.092;9.820;2023-08-24T09:49:27;7.17;;;5.03;;
8871;SDS011;4472;52.092;9.820;2023-08-24T09:52:16;5.70;;;5.20;;
8871;SDS011;4472;52.092;9.820;2023-08-24T09:55:04;6.43;;;4.77;;
8871;SDS011;4472;52.092;9.820;2023-08-24T09:57:55;5.77;;;5.13;;
8871;SDS011;4472;52.092;9.820;2023-08-24T10:00:43;5.20;;;4.40;;
8871;SDS011;4472;52.092;9.820;2023-08-24T10:03:32;5.00;;;4.50;;
8871;SDS011;4472;52.092;9.820;2023-08-24T10:06:23;7.03;;;5.83;;
8871;SDS011;4472;52.092;9.820;2023-08-24T10:09:27;8.10;;;5.30;;
8871;SDS011;4472;52.092;9.820;2023-08-24T10:12:18;5.70;;;5.20;;
8871;SDS011;4472;52.092;9.820;2023-08-24T10:15:10;6.23;;;4.20;;
8871;SDS011;4472;52.092;9.820;2023-08-24T10:17:58;8.30;;;5.10;;
8871;SDS011;4472;52.092;9.820;2023-08-24T10:20:47;8.93;;;5.13;;
8871;SDS011;4472;52.092;9.820;2023-08-24T10:23:34;9.77;;;4.70;;
8871;SDS011;4472;52.092;9.820;2023-08-24T10:26:25;5.00;;;4.00;;
8871;SDS011;4472;52.092;9.820;2023-08-24T10:29:13;8.63;;;4.27;;
8871;SDS011;4472;52.092;9.820;2023-08-24T10:32:01;4.73;;;4.23;;
8871;SDS011;4472;52.092;9.820;2023-08-24T10:34:49;4.43;;;4.03;;
8871;SDS011;4472;52.092;9.820;2023-08-24T10:37:36;5.83;;;3.80;;
8871;SDS011;4472;52.092;9.820;2023-08-24T10:40:32;5.47;;;3.90;;
8871;SDS011;4472;52.092;9.820;2023-08-24T10:43:22;10.43;;;3.80;;
8871;SDS011;4472;52.092;9.820;2023-08-24T10:46:13;6.57;;;4.30;;
8871;SDS011;4472;52.092;9.820;2023-08-24T10:49:03;5.53;;;3.77;;
8871;SDS011;4472;52.092;9.820;2023-08-24T10:51:51;4.30;;;3.90;;
8871;SDS011;4472;52.092;9.820;2023-08-24T10:54:40;5.33;;;3.40;;
8871;SDS011;4472;52.092;9.820;2023-08-24T10:57:34;3.87;;;3.50;;
8871;SDS011;4472;52.092;9.820;2023-08-24T11:00:25;3.60;;;3.30;;
8871;SDS011;4472;52.092;9.820;2023-08-24T11:03:14;4.07;;;3.17;;
8871;SDS011;4472;52.092;9.820;2023-08-24T11:06:17;4.33;;;3.00;;
8871;SDS011;4472;52.092;9.820;2023-08-24T11:09:06;3.20;;;2.90;;
8871;SDS011;4472;52.092;9.820;2023-08-24T11:11:59;6.30;;;2.97;;
8871;SDS011;4472;52.092;9.820;2023-08-24T11:14:48;8.55;;;3.40;;
8871;SDS011;4472;52.092;9.820;2023-08-24T11:17:40;4.50;;;3.08;;
8871;SDS011;4472;52.092;9.820;2023-08-24T11:20:28;4.63;;;3.28;;
8871;SDS011;4472;52.092;9.820;2023-08-24T11:23:15;3.40;;;2.83;;
8871;SDS011;4472;52.092;9.820;2023-08-24T11:26:03;4.55;;;3.15;;
8871;SDS011;4472;52.092;9.820;2023-08-24T11:28:52;3.80;;;3.00;;
8871;SDS011;4472;52.092;9.820;2023-08-24T11:31:40;5.15;;;2.80;;
8871;SDS011;4472;52.092;9.820;2023-08-24T11:34:29;4.50;;;3.03;;
8871;SDS011;4472;52.092;9.820;2023-08-24T11:37:19;3.90;;;3.47;;
8871;SDS011;4472;52.092;9.820;2023-08-24T11:40:15;3.58;;;2.95;;
8871;SDS011;4472;52.092;9.820;2023-08-24T11:43:04;4.93;;;2.78;;
8871;SDS011;4472;52.092;9.820;2023-08-24T11:45:51;3.08;;;2.88;;
8871;SDS011;4472;52.092;9.820;2023-08-24T11:48:39;3.08;;;2.80;;
8871;SDS011;4472;52.092;9.820;2023-08-24T11:51:28;4.55;;;3.30;;
8871;SDS011;4472;52.092;9.820;2023-08-24T11:54:18;5.03;;;3.00;;
8871;SDS011;4472;52.092;9.820;2023-08-24T11:57:06;4.70;;;3.38;;
8871;SDS011;4472;52.092;9.820;2023-08-24T11:59:53;3.23;;;3.03;;
8871;SDS011;4472;52.092;9.820;2023-08-24T12:02:41;5.65;;;3.47;;
8871;SDS011;4472;52.092;9.820;2023-08-24T12:05:28;4.80;;;3.08;;
8871;SDS011;4472;52.092;9.820;2023-08-24T12:08:17;5.55;;;3.50;;
8871;SDS011;4472;52.092;9.820;2023-08-24T12:11:09;4.78;;;3.53;;
8871;SDS011;4472;52.092;9.820;2023-08-24T12:13:57;4.03;;;3.10;;
8871;SDS011;4472;52.092;9.820;2023-08-24T12:16:44;3.55;;;2.95;;
8871;SDS011;4472;52.092;9.820;2023-08-24T12:19:32;5.85;;;3.50;;
8871;SDS011;4472;52.092;9.820;2023-08-24T12:22:19;3.88;;;3.28;;
8871;SDS011;4472;52.092;9.820;2023-08-24T12:25:08;3.50;;;3.20;;
8871;SDS011;4472;52.092;9.820;2023-08-24T12:28:08;5.40;;;3.83;;
8871;SDS011;4472;52.092;9.820;2023-08-24T12:30:56;3.50;;;3.20;;
8871;SDS011;4472;52.092;9.820;2023-08-24T12:33:49;4.78;;;3.42;;
8871;SDS011;4472;52.092;9.820;2023-08-24T12:36:45;5.38;;;3.65;;
8871;SDS011;4472;52.092;9.820;2023-08-24T12:39:34;4.43;;;3.15;;
8871;SDS011;4472;52.092;9.820;2023-08-24T12:42:23;3.67;;;3.33;;
8871;SDS011;4472;52.092;9.820;2023-08-24T12:45:10;4.00;;;3.10;;
8871;SDS011;4472;52.092;9.820;2023-08-24T12:47:57;4.20;;;3.50;;
8871;SDS011;4472;52.092;9.820;2023-08-24T12:50:44;6.22;;;3.70;;
8871;SDS011;4472;52.092;9.820;2023-08-24T12:53:31;4.85;;;3.33;;
8871;SDS011;4472;52.092;9.820;2023-08-24T12:56:18;3.83;;;3.50;;
8871;SDS011;4472;52.092;9.820;2023-08-24T12:59:07;5.43;;;3.80;;
8871;SDS011;4472;52.092;9.820;2023-08-24T13:01:54;3.67;;;3.05;;
8871;SDS011;4472;52.092;9.820;2023-08-24T13:04:41;4.90;;;2.92;;
8871;SDS011;4472;52.092;9.820;2023-08-24T13:07:28;5.38;;;3.13;;
8871;SDS011;4472;52.092;9.820;2023-08-24T13:10:16;2.83;;;2.63;;
8871;SDS011;4472;52.092;9.820;2023-08-24T13:13:03;3.35;;;3.03;;
8871;SDS011;4472;52.092;9.820;2023-08-24T13:15:52;5.70;;;3.40;;
8871;SDS011;4472;52.092;9.820;2023-08-24T13:18:39;4.55;;;2.90;;
8871;SDS011;4472;52.092;9.820;2023-08-24T13:21:26;5.22;;;2.85;;
8871;SDS011;4472;52.092;9.820;2023-08-24T13:24:13;4.60;;;3.20;;
8871;SDS011;4472;52.092;9.820;2023-08-24T13:27:00;5.43;;;3.03;;
8871;SDS011;4472;52.092;9.820;2023-08-24T13:29:48;2.50;;;2.30;;
8871;SDS011;4472;52.092;9.820;2023-08-24T13:32:36;2.97;;;2.65;;
8871;SDS011;4472;52.092;9.820;2023-08-24T13:35:24;5.75;;;3.13;;
8871;SDS011;4472;52.092;9.820;2023-08-24T13:38:11;3.40;;;3.10;;
8871;SDS011;4472;52.092;9.820;2023-08-24T13:40:58;3.40;;;2.83;;
8871;SDS011;4472;52.092;9.820;2023-08-24T13:43:46;3.90;;;2.65;;
8871;SDS011;4472;52.092;9.820;2023-08-24T13:46:33;3.35;;;2.90;;
8871;SDS011;4472;52.092;9.820;2023-08-24T13:49:21;3.10;;;2.75;;
8871;SDS011;4472;52.092;9.820;2023-08-24T13:52:08;4.17;;;2.90;;
8871;SDS011;4472;52.092;9.820;2023-08-24T13:54:55;3.07;;;2.77;;
8871;SDS011;4472;52.092;9.820;2023-08-24T13:57:42;3.47;;;2.85;;
8871;SDS011;4472;52.092;9.820;2023-08-24T14:00:29;3.83;;;2.70;;
8871;SDS011;4472;52.092;9.820;2023-08-24T14:03:17;3.10;;;2.83;;
8871;SDS011;4472;52.092;9.820;2023-08-24T14:06:05;5.60;;;2.97;;
8871;SDS011;4472;52.092;9.820;2023-08-24T14:08:52;4.65;;;2.83;;
8871;SDS011;4472;52.092;9.820;2023-08-24T14:11:40;4.10;;;2.93;;
8871;SDS011;4472;52.092;9.820;2023-08-24T14:14:27;3.13;;;2.83;;
8871;SDS011;4472;52.092;9.820;2023-08-24T14:17:14;4.38;;;3.10;;
8871;SDS011;4472;52.092;9.820;2023-08-24T14:20:01;4.20;;;3.03;;
8871;SDS011;4472;52.092;9.820;2023-08-24T14:22:50;3.65;;;2.92;;
8871;SDS011;4472;52.092;9.820;2023-08-24T14:25:38;5.63;;;2.70;;
8871;SDS011;4472;52.092;9.820;2023-08-24T14:28:25;4.05;;;2.83;;
8871;SDS011;4472;52.092;9.820;2023-08-24T14:31:35;3.55;;;3.22;;
8871;SDS011;4472;52.092;9.820;2023-08-24T14:34:23;3.25;;;2.95;;
8871;SDS011;4472;52.092;9.820;2023-08-24T14:37:10;6.20;;;3.10;;
8871;SDS011;4472;52.092;9.820;2023-08-24T14:39:58;3.92;;;3.20;;
8871;SDS011;4472;52.092;9.820;2023-08-24T14:42:46;3.20;;;3.00;;
8871;SDS011;4472;52.092;9.820;2023-08-24T14:45:34;7.03;;;3.25;;
8871;SDS011;4472;52.092;9.820;2023-08-24T14:48:21;3.90;;;3.17;;
8871;SDS011;4472;52.092;9.820;2023-08-24T14:51:08;3.72;;;3.10;;
8871;SDS011;4472;52.092;9.820;2023-08-24T14:53:55;7.20;;;3.17;;
8871;SDS011;4472;52.092;9.820;2023-08-24T14:56:44;4.25;;;3.13;;
8871;SDS011;4472;52.092;9.820;2023-08-24T14:59:31;4.15;;;3.10;;
8871;SDS011;4472;52.092;9.820;2023-08-24T15:02:19;6.05;;;3.58;;
8871;SDS011;4472;52.092;9.820;2023-08-24T15:05:07;7.28;;;3.47;;
8871;SDS011;4472;52.092;9.820;2023-08-24T15:07:54;4.93;;;3.38;;
8871;SDS011;4472;52.092;9.820;2023-08-24T15:10:41;4.97;;;3.17;;
8871;SDS011;4472;52.092;9.820;2023-08-24T15:13:30;9.60;;;3.50;;
8871;SDS011;4472;52.092;9.820;2023-08-24T15:16:17;8.75;;;3.63;;
8871;SDS011;4472;52.092;9.820;2023-08-24T15:19:05;3.75;;;3.38;;
8871;SDS011;4472;52.092;9.820;2023-08-24T15:21:52;4.55;;;3.40;;
8871;SDS011;4472;52.092;9.820;2023-08-24T15:24:39;3.75;;;3.45;;
8871;SDS011;4472;52.092;9.820;2023-08-24T15:27:27;5.65;;;3.65;;
8871;SDS011;4472;52.092;9.820;2023-08-24T15:30:16;3.78;;;3.33;;
8871;SDS011;4472;52.092;9.820;2023-08-24T15:33:04;4.65;;;3.40;;
8871;SDS011;4472;52.092;9.820;2023-08-24T15:35:51;6.13;;;3.75;;
8871;SDS011;4472;52.092;9.820;2023-08-24T15:38:38;8.10;;;3.58;;
8871;SDS011;4472;52.092;9.820;2023-08-24T15:41:25;5.68;;;3.20;;
8871;SDS011;4472;52.092;9.820;2023-08-24T15:44:13;5.70;;;3.70;;
8871;SDS011;4472;52.092;9.820;2023-08-24T15:47:01;5.45;;;3.45;;
8871;SDS011;4472;52.092;9.820;2023-08-24T15:49:48;12.57;;;3.65;;
8871;SDS011;4472;52.092;9.820;2023-08-24T15:52:36;6.30;;;3.80;;
8871;SDS011;4472;52.092;9.820;2023-08-24T15:55:23;7.73;;;4.20;;
8871;SDS011;4472;52.092;9.820;2023-08-24T15:58:11;10.77;;;4.10;;
8871;SDS011;4472;52.092;9.820;2023-08-24T16:00:58;5.90;;;3.83;;
8871;SDS011;4472;52.092;9.820;2023-08-24T16:03:47;4.63;;;3.60;;
8871;SDS011;4472;52.092;9.820;2023-08-24T16:06:34;5.27;;;3.60;;
8871;SDS011;4472;52.092;9.820;2023-08-24T16:09:21;11.87;;;3.73;;
8871;SDS011;4472;52.092;9.820;2023-08-24T16:12:08;8.30;;;3.50;;
8871;SDS011;4472;52.092;9.820;2023-08-24T16:14:55;6.37;;;3.73;;
8871;SDS011;4472;52.092;9.820;2023-08-24T16:17:43;4.53;;;3.80;;
8871;SDS011;4472;52.092;9.820;2023-08-24T16:20:31;4.17;;;3.43;;
8871;SDS011;4472;52.092;9.820;2023-08-24T16:23:20;5.60;;;3.50;;
8871;SDS011;4472;52.092;9.820;2023-08-24T16:26:07;4.17;;;3.40;;
8871;SDS011;4472;52.092;9.820;2023-08-24T16:28:54;10.80;;;4.13;;
8871;SDS011;4472;52.092;9.820;2023-08-24T16:31:41;4.80;;;3.90;;
8871;SDS011;4472;52.092;9.820;2023-08-24T16:34:28;4.40;;;3.63;;
8871;SDS011;4472;52.092;9.820;2023-08-24T16:37:17;4.80;;;3.53;;
8871;SDS011;4472;52.092;9.820;2023-08-24T16:40:05;4.77;;;3.60;;
8871;SDS011;4472;52.092;9.820;2023-08-24T16:42:53;4.40;;;3.70;;
8871;SDS011;4472;52.092;9.820;2023-08-24T16:45:40;7.07;;;3.73;;
8871;SDS011;4472;52.092;9.820;2023-08-24T16:48:27;4.80;;;3.30;;
8871;SDS011;4472;52.092;9.820;2023-08-24T16:51:14;4.27;;;3.50;;
8871;SDS011;4472;52.092;9.820;2023-08-24T16:54:03;4.70;;;4.00;;
8871;SDS011;4472;52.092;9.820;2023-08-24T16:56:51;5.47;;;3.60;;
8871;SDS011;4472;52.092;9.820;2023-08-24T16:59:38;5.00;;;4.17;;
8871;SDS011;4472;52.092;9.820;2023-08-24T17:02:25;6.83;;;3.73;;
8871;SDS011;4472;52.092;9.820;2023-08-24T17:05:12;4.83;;;3.80;;
8871;SDS011;4472;52.092;9.820;2023-08-24T17:08:03;5.53;;;3.93;;
8871;SDS011;4472;52.092;9.820;2023-08-24T17:10:52;12.77;;;4.73;;
8871;SDS011;4472;52.092;9.820;2023-08-24T17:13:40;5.77;;;3.87;;
8871;SDS011;4472;52.092;9.820;2023-08-24T17:16:27;9.03;;;4.10;;